createdAt,value
2023-03-29T00:00:47.865Z,63.69
2023-03-29T00:03:16.731Z,63.55
2023-03-29T00:05:45.023Z,63.83
2023-03-29T00:08:14.972Z,64.23
2023-03-29T00:10:43.208Z,63.46
2023-03-29T00:13:11.483Z,63.63
2023-03-29T00:15:39.532Z,63.45
2023-03-29T00:18:07.445Z,63.72
2023-03-29T00:20:35.645Z,62.76
2023-03-29T00:23:03.739Z,63.42
2023-03-29T00:25:31.639Z,62.86
2023-03-29T00:27:59.490Z,62.99
2023-03-29T00:30:27.496Z,62.89
2023-03-29T00:32:55.452Z,62.64
2023-03-29T00:35:23.601Z,62.56
2023-03-29T00:37:53.207Z,62.59
2023-03-29T00:40:21.381Z,61.93
2023-03-29T00:42:51.320Z,61.94
2023-03-29T00:45:21.220Z,61.51
2023-03-29T00:47:52.106Z,61.11
2023-03-29T00:50:41.917Z,62.09
2023-03-29T00:53:18.015Z,60.18
2023-03-29T00:56:12.177Z,60.46
2023-03-29T00:58:42.720Z,60.08
2023-03-29T01:01:16.898Z,60.31
2023-03-29T01:03:54.706Z,59.07
2023-03-29T01:06:26.329Z,59.22
2023-03-29T01:08:58.686Z,58.92
2023-03-29T01:11:37.054Z,58.10
2023-03-29T01:14:13.016Z,58.66
2023-03-29T01:16:41.644Z,58.23
2023-03-29T01:19:15.903Z,58.76
2023-03-29T01:22:06.031Z,58.65
2023-03-29T01:24:51.468Z,58.30
2023-03-29T01:27:37.999Z,58.16
2023-03-29T01:30:21.566Z,58.42
2023-03-29T01:32:57.222Z,58.51
2023-03-29T01:35:43.960Z,58.01
2023-03-29T01:38:30.823Z,57.74
2023-03-29T01:40:58.720Z,57.99
2023-03-29T01:43:36.467Z,57.23
2023-03-29T01:46:10.760Z,58.13
2023-03-29T01:48:52.568Z,57.37
2023-03-29T01:51:42.145Z,57.33
2023-03-29T01:54:18.504Z,57.68
2023-03-29T01:56:50.044Z,57.67
2023-03-29T01:59:23.479Z,58.02
2023-03-29T02:01:57.729Z,58.23
2023-03-29T02:04:34.836Z,58.37
2023-03-29T02:07:06.215Z,58.81
2023-03-29T02:09:37.390Z,58.61
2023-03-29T02:12:08.102Z,58.90
2023-03-29T02:14:36.694Z,58.68
2023-03-29T02:17:28.061Z,58.56
2023-03-29T02:20:02.364Z,58.69
2023-03-29T02:22:48.591Z,58.75
2023-03-29T02:25:17.716Z,58.58
2023-03-29T02:27:46.418Z,58.71
2023-03-29T02:30:17.477Z,59.10
2023-03-29T02:33:02.166Z,59.30
2023-03-29T02:35:38.678Z,59.00
2023-03-29T02:38:11.600Z,58.43
2023-03-29T02:40:42.912Z,58.64
2023-03-29T02:43:14.276Z,58.71
2023-03-29T02:45:44.501Z,58.56
2023-03-29T02:48:17.644Z,58.53
2023-03-29T02:50:50.166Z,58.25
2023-03-29T02:56:27.925Z,58.33
2023-03-29T02:58:56.220Z,58.39
2023-03-29T03:01:24.732Z,58.72
2023-03-29T03:03:52.973Z,58.21
2023-03-29T03:06:21.765Z,57.82
2023-03-29T03:08:51.273Z,58.14
2023-03-29T03:11:19.149Z,58.21
2023-03-29T03:13:47.556Z,58.11
2023-03-29T03:16:16.085Z,57.49
2023-03-29T03:18:46.099Z,57.51
2023-03-29T03:21:14.058Z,57.92
2023-03-29T03:23:42.295Z,57.39
2023-03-29T03:26:10.920Z,58.48
2023-03-29T03:28:40.305Z,58.76
2023-03-29T03:31:14.475Z,58.22
2023-03-29T03:34:05.370Z,57.91
2023-03-29T03:36:56.156Z,57.01
2023-03-29T03:39:24.202Z,56.91
2023-03-29T03:41:52.672Z,56.70
2023-03-29T03:44:20.836Z,56.05
2023-03-29T03:46:57.996Z,56.41
2023-03-29T03:49:25.890Z,56.67
2023-03-29T03:51:54.345Z,57.03
2023-03-29T03:54:22.476Z,56.88
2023-03-29T03:57:16.785Z,56.52
2023-03-29T03:59:50.236Z,56.06
2023-03-29T04:02:27.053Z,55.63
2023-03-29T04:04:55.355Z,55.34
2023-03-29T04:07:30.536Z,55.34
2023-03-29T04:10:21.705Z,55.94
2023-03-29T04:13:04.908Z,55.44
2023-03-29T04:15:39.457Z,56.18
2023-03-29T04:18:10.697Z,55.73
2023-03-29T04:20:46.284Z,55.79
2023-03-29T04:23:16.718Z,55.82
2023-03-29T04:25:46.091Z,56.20
2023-03-29T04:28:33.630Z,55.60
2023-03-29T04:31:14.691Z,55.02
2023-03-29T04:33:52.261Z,56.14
2023-03-29T04:36:20.966Z,54.71
2023-03-29T04:38:49.043Z,54.44
2023-03-29T04:41:17.555Z,54.89
2023-03-29T04:44:07.074Z,54.17
2023-03-29T04:46:35.945Z,52.92
2023-03-29T04:49:22.482Z,53.21
2023-03-29T04:51:54.641Z,52.51
2023-03-29T04:54:27.568Z,52.25
2023-03-29T04:57:18.524Z,52.23
2023-03-29T04:59:56.774Z,52.50
2023-03-29T05:02:46.385Z,52.69
2023-03-29T05:05:16.233Z,52.16
2023-03-29T05:07:48.191Z,52.02
2023-03-29T05:10:20.465Z,51.63
2023-03-29T05:12:54.283Z,51.50
2023-03-29T05:15:23.992Z,51.98
2023-03-29T05:17:52.139Z,51.18
2023-03-29T05:20:20.042Z,50.59
2023-03-29T05:22:49.065Z,50.74
2023-03-29T05:25:37.385Z,51.36
2023-03-29T05:28:05.687Z,50.15
2023-03-29T05:30:34.031Z,50.27
2023-03-29T05:33:10.761Z,49.54
2023-03-29T05:35:39.964Z,48.61
2023-03-29T05:38:09.575Z,47.67
2023-03-29T05:40:37.994Z,46.23
2023-03-29T05:43:31.905Z,45.78
2023-03-29T05:46:00.518Z,46.30
2023-03-29T05:48:30.159Z,48.41
2023-03-29T05:50:58.124Z,49.38
2023-03-29T05:53:29.996Z,49.85
2023-03-29T05:55:58.059Z,51.44
2023-03-29T05:58:28.855Z,52.05
2023-03-29T06:00:57.427Z,51.68
2023-03-29T06:03:49.746Z,52.25
2023-03-29T06:06:21.618Z,52.02
2023-03-29T06:08:50.872Z,50.87
2023-03-29T06:11:24.681Z,51.02
2023-03-29T06:14:23.534Z,50.06
2023-03-29T06:17:01.977Z,49.75
2023-03-29T06:19:30.060Z,50.34
2023-03-29T06:21:58.179Z,49.59
2023-03-29T06:24:29.342Z,48.40
2023-03-29T06:27:03.501Z,48.59
2023-03-29T06:29:32.176Z,48.59
2023-03-29T06:32:00.463Z,48.07
2023-03-29T06:34:49.218Z,46.68
2023-03-29T06:37:26.744Z,46.63
2023-03-29T06:40:07.697Z,44.80
2023-03-29T06:42:42.589Z,43.07
2023-03-29T06:45:31.762Z,40.99
2023-03-29T06:48:03.362Z,38.74
2023-03-29T06:50:32.795Z,36.67
2023-03-29T06:53:09.319Z,36.08
2023-03-29T06:55:37.563Z,34.41
2023-03-29T06:58:35.906Z,35.91
2023-03-29T07:01:11.822Z,36.22
2023-03-29T07:03:51.255Z,35.34
2023-03-29T07:06:25.081Z,37.70
2023-03-29T07:08:53.884Z,39.24
2023-03-29T07:11:46.955Z,38.18
2023-03-29T07:14:27.951Z,39.19
2023-03-29T07:16:58.670Z,39.34
2023-03-29T07:19:33.478Z,34.72
2023-03-29T07:22:21.900Z,32.35
2023-03-29T07:24:55.509Z,29.53
2023-03-29T07:27:23.984Z,26.83
2023-03-29T07:29:52.360Z,27.79
2023-03-29T07:32:20.878Z,27.87
2023-03-29T07:35:13.450Z,28.08
2023-03-29T07:37:43.076Z,27.68
2023-03-29T07:40:19.181Z,26.45
2023-03-29T07:43:13.507Z,26.28
2023-03-29T07:45:42.563Z,23.96
2023-03-29T07:48:13.453Z,22.29
2023-03-29T07:50:54.204Z,20.74
2023-03-29T07:53:29.809Z,20.65
2023-03-29T07:56:00.475Z,20.00
2023-03-29T07:58:52.036Z,21.04
2023-03-29T08:01:22.076Z,21.59
2023-03-29T08:04:10.546Z,21.47
2023-03-29T08:07:01.492Z,19.42
2023-03-29T08:09:48.127Z,20.00
2023-03-29T08:12:17.412Z,19.38
2023-03-29T08:14:46.383Z,19.62
2023-03-29T08:17:19.759Z,19.93
2023-03-29T08:19:50.988Z,19.28
2023-03-29T08:22:22.925Z,18.82
2023-03-29T08:25:20.368Z,19.21
2023-03-29T08:27:52.374Z,19.55
2023-03-29T08:30:33.441Z,19.43
2023-03-29T08:33:03.421Z,20.11
2023-03-29T08:35:31.816Z,19.15
2023-03-29T08:38:27.377Z,19.72
2023-03-29T08:40:57.078Z,19.09
2023-03-29T08:43:58.273Z,18.93
2023-03-29T08:47:00.897Z,19.52
2023-03-29T08:49:40.140Z,19.96
2023-03-29T08:52:27.419Z,18.46
2023-03-29T08:54:57.546Z,19.23
2023-03-29T08:57:47.767Z,18.58
2023-03-29T09:00:37.548Z,18.83
2023-03-29T09:03:29.352Z,18.71
2023-03-29T09:06:11.096Z,19.25
2023-03-29T09:08:45.940Z,19.79
2023-03-29T09:11:50.484Z,19.36
2023-03-29T09:14:37.040Z,19.86
2023-03-29T09:17:20.559Z,20.28
2023-03-29T09:19:54.692Z,21.25
2023-03-29T09:22:35.010Z,21.24
2023-03-29T09:25:27.691Z,21.51
2023-03-29T09:28:02.584Z,21.28
2023-03-29T09:31:07.654Z,21.30
2023-03-29T09:33:59.954Z,20.26
2023-03-29T09:36:54.946Z,21.07
2023-03-29T09:39:23.749Z,21.48
2023-03-29T09:42:09.381Z,20.51
2023-03-29T09:44:41.701Z,20.07
2023-03-29T09:47:32.296Z,20.52
2023-03-29T09:50:19.849Z,19.55
2023-03-29T09:52:55.872Z,19.74
2023-03-29T09:55:31.521Z,19.71
2023-03-29T09:58:21.389Z,21.29
2023-03-29T10:00:53.327Z,21.69
2023-03-29T10:03:29.890Z,22.37
2023-03-29T10:06:17.500Z,22.84
2023-03-29T10:09:01.423Z,22.23
2023-03-29T10:11:54.063Z,22.04
2023-03-29T10:14:36.377Z,21.80
2023-03-29T10:17:18.990Z,21.79
2023-03-29T10:19:52.738Z,21.79
2023-03-29T10:22:25.830Z,21.13
2023-03-29T10:24:57.397Z,20.37
2023-03-29T10:27:28.488Z,20.16
2023-03-29T10:30:00.041Z,19.73
2023-03-29T10:32:38.136Z,20.25
2023-03-29T10:35:11.055Z,20.54
2023-03-29T10:37:49.086Z,20.79
2023-03-29T10:40:26.134Z,18.85
2023-03-29T10:42:59.680Z,18.49
2023-03-29T10:45:31.935Z,19.53
2023-03-29T10:48:00.167Z,19.25
2023-03-29T10:50:34.592Z,18.30
2023-03-29T10:53:23.755Z,18.57
2023-03-29T10:56:00.898Z,17.50
2023-03-29T10:58:38.060Z,16.74
2023-03-29T11:01:14.915Z,18.25
2023-03-29T11:04:16.243Z,20.47
2023-03-29T11:06:57.387Z,20.03
2023-03-29T11:09:41.671Z,20.62
2023-03-29T11:12:16.446Z,20.86
2023-03-29T11:15:10.403Z,21.71
2023-03-29T11:17:52.901Z,21.74
2023-03-29T11:20:44.417Z,21.04
2023-03-29T11:23:35.896Z,21.53
2023-03-29T11:26:10.091Z,21.12
2023-03-29T11:29:15.023Z,21.52
2023-03-29T11:31:55.265Z,21.71
2023-03-29T11:34:54.306Z,22.69
2023-03-29T11:37:48.939Z,21.49
2023-03-29T11:40:36.395Z,21.59
2023-03-29T11:43:12.663Z,22.19
2023-03-29T11:45:50.778Z,23.05
2023-03-29T11:48:26.321Z,22.61
2023-03-29T11:51:26.458Z,23.09
2023-03-29T11:54:13.174Z,23.10
2023-03-29T11:56:47.913Z,23.08
2023-03-29T11:59:29.085Z,21.44
2023-03-29T12:02:09.346Z,20.81
2023-03-29T12:04:51.159Z,21.93
2023-03-29T12:08:04.413Z,19.40
2023-03-29T12:11:03.046Z,19.49
2023-03-29T12:13:40.770Z,19.71
2023-03-29T12:16:47.004Z,19.35
2023-03-29T12:19:40.950Z,19.53
2023-03-29T12:22:11.305Z,19.46
2023-03-29T12:24:47.245Z,19.96
2023-03-29T12:27:32.940Z,19.96
2023-03-29T12:30:27.522Z,21.67
2023-03-29T12:33:15.882Z,22.30
2023-03-29T12:36:14.242Z,21.54
2023-03-29T12:38:54.693Z,22.92
2023-03-29T12:41:45.077Z,21.65
2023-03-29T12:44:18.015Z,21.46
2023-03-29T12:47:01.702Z,21.75
2023-03-29T12:49:39.392Z,21.93
2023-03-29T12:52:27.321Z,21.96
2023-03-29T12:54:59.015Z,22.30
2023-03-29T12:57:40.077Z,22.39
2023-03-29T13:00:33.055Z,22.06
2023-03-29T13:03:20.517Z,22.86
2023-03-29T13:05:59.266Z,22.64
2023-03-29T13:08:36.084Z,21.88
2023-03-29T13:11:06.766Z,22.47
2023-03-29T13:13:38.256Z,22.91
2023-03-29T13:16:15.199Z,23.46
2023-03-29T13:19:32.542Z,24.06
2023-03-29T13:22:26.117Z,23.65
2023-03-29T13:25:11.665Z,23.94
2023-03-29T13:28:04.696Z,24.30
2023-03-29T13:30:57.573Z,23.70
2023-03-29T13:33:56.160Z,23.66
2023-03-29T13:36:47.524Z,24.52
2023-03-29T13:39:30.090Z,22.91
2023-03-29T13:42:20.067Z,23.55
2023-03-29T13:44:52.326Z,23.30
2023-03-29T13:47:27.252Z,23.98
2023-03-29T13:49:59.560Z,23.83
2023-03-29T13:52:59.001Z,23.93
2023-03-29T13:55:33.671Z,23.43
2023-03-29T13:58:15.137Z,24.43
2023-03-29T14:00:54.440Z,23.91
2023-03-29T14:03:30.070Z,23.61
2023-03-29T14:06:01.918Z,23.56
2023-03-29T14:08:42.144Z,23.42
2023-03-29T14:11:28.600Z,23.04
2023-03-29T14:13:59.150Z,23.43
2023-03-29T14:16:30.706Z,23.72
2023-03-29T14:19:22.282Z,23.24
2023-03-29T14:21:53.776Z,23.53
2023-03-29T14:24:29.868Z,24.61
2023-03-29T14:26:58.303Z,24.03
2023-03-29T14:29:34.264Z,23.25
2023-03-29T14:32:16.570Z,22.71
2023-03-29T14:34:48.809Z,23.16
2023-03-29T14:37:22.946Z,22.61
2023-03-29T14:39:51.375Z,23.02
2023-03-29T14:42:26.992Z,24.24
2023-03-29T14:45:04.408Z,23.32
2023-03-29T14:47:34.251Z,23.59
2023-03-29T14:50:04.266Z,22.85
2023-03-29T14:52:32.796Z,23.15
2023-03-29T14:55:02.816Z,23.36
2023-03-29T14:57:37.045Z,23.85
2023-03-29T15:00:18.203Z,22.98
2023-03-29T15:02:59.078Z,23.23
2023-03-29T15:05:36.318Z,22.50
2023-03-29T15:08:07.961Z,22.19
2023-03-29T15:10:38.246Z,22.95
2023-03-29T15:13:08.554Z,24.32
2023-03-29T15:15:39.197Z,24.47
2023-03-29T15:18:16.692Z,23.99
2023-03-29T15:20:46.056Z,23.73
2023-03-29T15:23:17.300Z,24.56
2023-03-29T15:25:56.590Z,24.59
2023-03-29T15:28:31.412Z,25.30
2023-03-29T15:31:10.743Z,25.87
2023-03-29T15:33:42.056Z,25.78
2023-03-29T15:36:13.201Z,26.09
2023-03-29T15:38:45.112Z,25.91
2023-03-29T15:41:15.765Z,25.81
2023-03-29T15:43:44.362Z,25.72
2023-03-29T15:46:14.386Z,25.56
2023-03-29T15:48:43.492Z,26.60
2023-03-29T15:51:12.829Z,26.48
2023-03-29T15:53:41.745Z,27.25
2023-03-29T15:56:16.160Z,27.39
2023-03-29T15:58:45.450Z,26.82
2023-03-29T16:01:37.004Z,27.64
2023-03-29T16:04:08.209Z,28.82
2023-03-29T16:06:37.005Z,28.69
2023-03-29T16:09:07.402Z,28.73
2023-03-29T16:11:36.002Z,29.24
2023-03-29T16:14:15.258Z,29.64
2023-03-29T16:16:43.851Z,29.08
2023-03-29T16:19:12.450Z,28.66
2023-03-29T16:21:40.946Z,30.74
2023-03-29T16:24:21.536Z,29.81
2023-03-29T16:26:52.180Z,29.61
2023-03-29T16:29:21.815Z,30.12
2023-03-29T16:31:50.968Z,30.39
2023-03-29T16:34:20.191Z,29.88
2023-03-29T16:36:49.341Z,30.97
2023-03-29T16:39:18.485Z,31.16
2023-03-29T16:41:48.944Z,31.41
2023-03-29T16:44:23.748Z,31.51
2023-03-29T16:46:58.459Z,30.79
2023-03-29T16:49:26.849Z,31.88
2023-03-29T16:51:55.340Z,32.16
2023-03-29T16:54:26.294Z,31.98
2023-03-29T16:56:54.814Z,32.35
2023-03-29T16:59:23.425Z,31.65
2023-03-29T17:01:52.028Z,31.70
2023-03-29T17:04:20.721Z,31.78
2023-03-29T17:06:49.011Z,31.65
2023-03-29T17:09:17.991Z,31.76
2023-03-29T17:11:46.607Z,32.11
2023-03-29T17:14:16.451Z,32.84
2023-03-29T17:16:45.327Z,32.56
2023-03-29T17:19:13.913Z,32.47
2023-03-29T17:21:42.597Z,31.97
2023-03-29T17:24:11.268Z,33.13
2023-03-29T17:26:40.413Z,32.01
2023-03-29T17:29:08.720Z,33.44
2023-03-29T17:31:38.525Z,32.97
2023-03-29T17:34:06.987Z,33.44
2023-03-29T17:36:37.793Z,33.92
2023-03-29T17:39:06.668Z,33.95
2023-03-29T17:41:35.425Z,34.19
2023-03-29T17:44:03.954Z,34.27
2023-03-29T17:46:32.664Z,34.67
2023-03-29T17:49:01.238Z,35.78
2023-03-29T17:51:29.861Z,34.00
2023-03-29T17:53:58.626Z,34.32
2023-03-29T17:56:27.052Z,34.31
2023-03-29T17:58:55.789Z,34.34
2023-03-29T18:01:24.345Z,33.88
2023-03-29T18:03:52.823Z,34.11
2023-03-29T18:06:21.703Z,33.86
2023-03-29T18:08:50.305Z,34.56
2023-03-29T18:11:23.066Z,33.28
2023-03-29T18:13:52.711Z,34.39
2023-03-29T18:16:22.609Z,33.96
2023-03-29T18:18:52.377Z,33.86
2023-03-29T18:21:20.524Z,34.66
2023-03-29T18:23:50.151Z,34.54
2023-03-29T18:26:18.502Z,33.90
2023-03-29T18:28:47.513Z,35.61
2023-03-29T18:31:16.704Z,34.33
2023-03-29T18:33:45.426Z,36.10
2023-03-29T18:36:14.272Z,35.71
2023-03-29T18:38:44.080Z,36.38
2023-03-29T18:41:14.632Z,37.07
2023-03-29T18:43:44.604Z,37.72
2023-03-29T18:46:13.425Z,37.93
2023-03-29T18:48:42.306Z,38.01
2023-03-29T18:51:11.429Z,37.44
2023-03-29T18:53:41.995Z,37.64
2023-03-29T18:56:11.584Z,38.77
2023-03-29T18:58:40.123Z,39.31
2023-03-29T19:01:09.941Z,39.25
2023-03-29T19:03:38.865Z,39.39
2023-03-29T19:06:08.456Z,39.30
2023-03-29T19:08:41.642Z,39.90
2023-03-29T19:11:14.487Z,40.91
2023-03-29T19:13:43.281Z,42.08
2023-03-29T19:16:12.527Z,42.37
2023-03-29T19:18:41.238Z,42.47
2023-03-29T19:21:09.996Z,43.44
2023-03-29T19:23:39.443Z,43.87
2023-03-29T19:26:09.080Z,42.81
2023-03-29T19:28:37.728Z,44.05
2023-03-29T19:31:07.575Z,44.38
2023-03-29T19:33:35.815Z,44.74
2023-03-29T19:36:04.332Z,45.01
2023-03-29T19:38:32.695Z,45.08
2023-03-29T19:41:00.828Z,45.20
2023-03-29T19:43:29.396Z,45.07
2023-03-29T19:46:05.183Z,45.52
2023-03-29T19:48:33.670Z,45.32
2023-03-29T19:55:33.541Z,45.07
2023-03-29T19:58:01.982Z,43.85
2023-03-29T20:00:32.168Z,44.86
2023-03-29T20:03:01.589Z,44.49
2023-03-29T20:05:30.238Z,45.06
2023-03-29T20:07:58.603Z,45.20
2023-03-29T20:10:27.125Z,44.71
2023-03-29T20:12:57.203Z,44.94
2023-03-29T20:15:26.357Z,43.95
2023-03-29T20:17:59.444Z,44.47
2023-03-29T20:20:28.732Z,44.59
2023-03-29T20:23:05.168Z,44.46
2023-03-29T20:25:36.511Z,44.62
2023-03-29T20:28:05.001Z,43.80
2023-03-29T20:30:33.285Z,44.36
2023-03-29T20:33:01.582Z,44.04
2023-03-29T20:35:29.665Z,43.50
2023-03-29T20:37:58.050Z,44.17
2023-03-29T20:40:26.240Z,43.81
2023-03-29T20:42:54.645Z,43.84
2023-03-29T20:45:23.126Z,42.91
2023-03-29T20:47:57.937Z,42.62
2023-03-29T20:50:26.801Z,43.56
2023-03-29T20:52:55.982Z,42.22
2023-03-29T20:55:24.261Z,42.46
2023-03-29T20:57:54.519Z,41.84
2023-03-29T21:00:22.759Z,41.71
2023-03-29T21:02:52.540Z,42.00
2023-03-29T21:05:20.936Z,41.43
2023-03-29T21:07:48.918Z,41.29
2023-03-29T21:10:17.550Z,41.11
2023-03-29T21:12:45.544Z,41.80
2023-03-29T21:15:18.088Z,41.24
2023-03-29T21:17:47.745Z,41.35
2023-03-29T21:20:16.454Z,41.00
2023-03-29T21:22:47.417Z,41.09
2023-03-29T21:25:16.123Z,40.63
2023-03-29T21:27:44.350Z,41.30
2023-03-29T21:30:12.787Z,41.01
2023-03-29T21:32:41.373Z,40.70
2023-03-29T21:35:10.740Z,40.55
2023-03-29T21:37:38.894Z,40.71
2023-03-29T21:40:08.890Z,40.65
2023-03-29T21:42:37.223Z,40.60
2023-03-29T21:45:06.000Z,40.72
2023-03-29T21:47:34.431Z,40.26
2023-03-29T21:50:02.435Z,41.21
2023-03-29T21:52:30.596Z,40.18
2023-03-29T21:54:58.548Z,40.55
2023-03-29T21:57:26.841Z,40.23
2023-03-29T21:59:54.809Z,40.56
2023-03-29T22:02:22.953Z,40.47
2023-03-29T22:04:50.902Z,40.60
2023-03-29T22:07:22.953Z,40.02
2023-03-29T22:09:50.998Z,40.36
2023-03-29T22:12:19.106Z,41.16
2023-03-29T22:14:47.306Z,40.41
2023-03-29T22:17:16.210Z,40.45
2023-03-29T22:19:44.545Z,40.70
2023-03-29T22:22:14.650Z,40.65
2023-03-29T22:24:45.226Z,40.17
2023-03-29T22:27:13.341Z,40.52
2023-03-29T22:29:41.186Z,40.71
2023-03-29T22:32:09.396Z,40.36
2023-03-29T22:34:37.405Z,39.92
2023-03-29T22:37:05.554Z,40.44
2023-03-29T22:39:37.039Z,40.67
2023-03-29T22:42:05.036Z,40.67
2023-03-29T22:44:34.093Z,40.75
2023-03-29T22:47:02.038Z,40.42
2023-03-29T22:49:30.139Z,41.20
2023-03-29T22:51:58.100Z,40.42
2023-03-29T22:54:26.222Z,40.98
2023-03-29T22:56:54.165Z,41.87
2023-03-29T22:59:22.219Z,40.79
2023-03-29T23:01:50.296Z,40.80
2023-03-29T23:04:18.387Z,41.57
2023-03-29T23:06:49.509Z,41.76
2023-03-29T23:09:17.481Z,42.48
2023-03-29T23:11:46.168Z,42.70
2023-03-29T23:14:15.116Z,43.75
2023-03-29T23:16:43.083Z,43.77
2023-03-29T23:19:11.253Z,43.93
2023-03-29T23:21:39.232Z,44.50
2023-03-29T23:24:07.463Z,44.35
2023-03-29T23:26:35.976Z,44.76
2023-03-29T23:29:04.721Z,45.22
2023-03-29T23:31:33.933Z,44.94
2023-03-29T23:34:03.440Z,45.39
2023-03-29T23:36:31.783Z,46.38
2023-03-29T23:38:59.841Z,46.74
2023-03-29T23:41:28.448Z,47.51
2023-03-29T23:43:58.073Z,48.27
2023-03-29T23:46:26.280Z,48.11
2023-03-29T23:48:54.837Z,48.55
2023-03-29T23:51:23.486Z,48.71
2023-03-29T23:53:52.019Z,48.86
2023-03-29T23:56:21.592Z,48.54
2023-03-29T23:58:49.985Z,48.65
